Terminal Aerodrome Forecast
Issued by NWS

Home | Current Version | Previous Version | Text Only | Print | Product List | Glossary On
Versions: 1 2 3 4 5 6 7 8 9 10 11 12 13 14 15 16
000
FTUS44 KLIX 192322
TAFGPT
TAF
KGPT 192322Z 2000/2024 19006KT P6SM SKC
     FM200100 20006KT P6SM FEW050 SCT200
     FM201100 27004KT P6SM BKN050 BKN150
     FM201500 30003KT P6SM SKC
     FM201700 19005KT P6SM SCT030=

USA.gov is the U.S. government's official web portal to all federal, state and local government web resources and services.